Terminal Aerodrome Forecast
Issued by NWS Greer, SC

Home | Current Version | Previous Version | Text Only | Print | Product List | Glossary On
Versions: 1 2 3 4 5 6 7 8 9 10 11 12 13 14
000
FTUS42 KGSP 311739
TAFGSP
TAF
KGSP 311739Z 3118/0118 24005KT P6SM SCT050 BKN120
     FM312300 29005KT P6SM BKN050
     FM010400 32009KT P6SM OVC040
     FM010900 32010G18KT P6SM VCSH OVC030
     FM011100 32011G19KT 6SM -SHRA BR OVC025
     FM011300 33016G28KT 5SM -SHRASN BR OVC020=

USA.gov is the U.S. government's official web portal to all federal, state and local government web resources and services.